(°C)
13°
13°
12°
12°
12°
12°
12°
(°C)
10°
10°
10°
10°
ΒΔ
ΒΔ
ΒΔ
ΔΒΔ
ΔΒΔ
ΔΒΔ
ΒΔ
(χλμ / ω)
8-17
7-13
8-15
8-16
9-16
10-19
11-22
(χιλιοστά)
0
0
0
0
0
0
0
(%)
0
0
0
0
0
0
0

Ανύψωση ήλιου

/ -12.2°
sun-icon
UV 3
06:34
18:54
Πανσέληνος (187°)
19:26
06:41

METAR για Ivanka pri Dunaji (LZIB)

Χρόνος Συνθήκες Θερμοκρασία/
Σημείο δρόσου
Άνεμος Ορατότητα Καιρός Νέφη Πίεση Αλλαγή Ανεπεξέργαστο
VFR 14°C / 5°C 310º 6kt >10km - Clouds and Visibility OK 1026 No Significant change LZIB 211730Z 31006KT CAVOK 14/05 Q1026 NOSIG
VFR 15°C / 4°C 310º 5kt >10km - Clouds and Visibility OK 1026 No Significant change LZIB 211700Z 31005KT CAVOK 15/04 Q1026 NOSIG
VFR 15°C / 4°C 320º 6kt >10km - Clouds and Visibility OK 1026 No Significant change LZIB 211630Z 32006KT CAVOK 15/04 Q1026 NOSIG
VFR 15°C / 4°C 320º 8kt >10km - Clouds and Visibility OK 1026 No Significant change LZIB 211600Z 32008KT CAVOK 15/04 Q1026 NOSIG
VFR 15°C / 3°C 320º 8kt >10km - Clouds and Visibility OK 1026 No Significant change LZIB 211530Z 32008KT CAVOK 15/03 Q1026 NOSIG
VFR 15°C / 5°C 330º 10kt >10km - Clouds and Visibility OK 1026 No Significant change LZIB 211500Z 33010KT CAVOK 15/05 Q1026 NOSIG
VFR 16°C / 5°C 320º variable 280º to 340º 10kt >10km - Clouds and Visibility OK 1026 No Significant change LZIB 211430Z 32010KT 280V340 CAVOK 16/05 Q1026 NOSIG
VFR 16°C / 4°C 320º 11kt >10km - Clouds and Visibility OK 1026 No Significant change LZIB 211400Z 32011KT CAVOK 16/04 Q1026 NOSIG
VFR 16°C / 5°C 320º 10kt >10km - Clouds and Visibility OK 1026 No Significant change LZIB 211330Z 32010KT CAVOK 16/05 Q1026 NOSIG
VFR 16°C / 4°C 310º 12kt >10km - Clouds and Visibility OK 1026 No Significant change LZIB 211300Z 31012KT CAVOK 16/04 Q1026 NOSIG
VFR 17°C / 3°C 360º variable 330º to 040º 7kt >10km - Clouds and Visibility OK 1026 No Significant change LZIB 211230Z 36007KT 330V040 CAVOK 17/03 Q1026 NOSIG
VFR 16°C / 3°C 340º 9kt >10km - Clouds and Visibility OK 1026 No Significant change LZIB 211200Z 34009KT CAVOK 16/03 Q1026 NOSIG
VFR 16°C / 3°C 350º variable 330º to 030º 11kt >10km - Clouds and Visibility OK 1026 No Significant change LZIB 211130Z 35011KT 330V030 CAVOK 16/03 Q1026 NOSIG
VFR 16°C / 4°C 360º 11kt >10km - Clouds and Visibility OK 1026 No Significant change LZIB 211100Z 36011KT CAVOK 16/04 Q1026 NOSIG
VFR 15°C / 3°C 340º variable 320º to 030º 11kt >10km - Clouds and Visibility OK 1026 No Significant change LZIB 211030Z 34011KT 320V030 CAVOK 15/03 Q1026 NOSIG
VFR 16°C / 3°C 360º variable 330º to 040º 10kt >10km - Clouds and Visibility OK 1026 No Significant change LZIB 211000Z 36010KT 330V040 CAVOK 16/03 Q1026 NOSIG
VFR 16°C / 4°C 30º variable 340º to 070º 7kt >10km - Few Clouds 4800ft 1026 No Significant change LZIB 210930Z 03007KT 340V070 9999 FEW048 16/04 Q1026 NOSIG
VFR 15°C / 3°C 20º variable 340º to 050º 8kt >10km - Few Clouds 4600ft 1026 No Significant change LZIB 210900Z 02008KT 340V050 9999 FEW046 15/03 Q1026 NOSIG
VFR 15°C / 4°C 20º variable 350º to 050º 9kt >10km - Few Clouds 4600ft 1026 No Significant change LZIB 210830Z 02009KT 350V050 9999 FEW046 15/04 Q1026 NOSIG
VFR 14°C / 3°C 10º variable 340º to 040º 11kt >10km - Few Clouds 4200ft 1026 No Significant change LZIB 210800Z 01011KT 340V040 9999 FEW042 14/03 Q1026 NOSIG
VFR 14°C / 3°C 350º 11kt >10km - Clouds and Visibility OK 1026 No Significant change LZIB 210730Z 35011KT CAVOK 14/03 Q1026 NOSIG
VFR 14°C / 3°C 10º 10kt >10km - Clouds and Visibility OK 1025 No Significant change LZIB 210700Z 01010KT CAVOK 14/03 Q1025 NOSIG
VFR 13°C / 4°C 360º 9kt >10km - Clouds and Visibility OK 1025 No Significant change LZIB 210630Z 36009KT CAVOK 13/04 Q1025 NOSIG
VFR 13°C / 4°C 360º variable 290º to 020º 7kt >10km - Clouds and Visibility OK 1025 No Significant change LZIB 210600Z 36007KT 290V020 CAVOK 13/04 Q1025 NOSIG

VFR

14°C / 5°C

[Περισσότερο]
Άνεμος 310º 6kt
Ορατότητα >10km
Καιρός -
Νέφη Clouds and Visibility OK
Πίεση 1026
Αλλαγή No Significant change
Ανεπεξέργαστο LZIB 211730Z 31006KT CAVOK 14/05 Q1026 NOSIG

VFR

15°C / 4°C

[Περισσότερο]
Άνεμος 310º 5kt
Ορατότητα >10km
Καιρός -
Νέφη Clouds and Visibility OK
Πίεση 1026
Αλλαγή No Significant change
Ανεπεξέργαστο LZIB 211700Z 31005KT CAVOK 15/04 Q1026 NOSIG

VFR

15°C / 4°C

[Περισσότερο]
Άνεμος 320º 6kt
Ορατότητα >10km
Καιρός -
Νέφη Clouds and Visibility OK
Πίεση 1026
Αλλαγή No Significant change
Ανεπεξέργαστο LZIB 211630Z 32006KT CAVOK 15/04 Q1026 NOSIG

VFR

15°C / 4°C

[Περισσότερο]
Άνεμος 320º 8kt
Ορατότητα >10km
Καιρός -
Νέφη Clouds and Visibility OK
Πίεση 1026
Αλλαγή No Significant change
Ανεπεξέργαστο LZIB 211600Z 32008KT CAVOK 15/04 Q1026 NOSIG

VFR

15°C / 3°C

[Περισσότερο]
Άνεμος 320º 8kt
Ορατότητα >10km
Καιρός -
Νέφη Clouds and Visibility OK
Πίεση 1026
Αλλαγή No Significant change
Ανεπεξέργαστο LZIB 211530Z 32008KT CAVOK 15/03 Q1026 NOSIG

VFR

15°C / 5°C

[Περισσότερο]
Άνεμος 330º 10kt
Ορατότητα >10km
Καιρός -
Νέφη Clouds and Visibility OK
Πίεση 1026
Αλλαγή No Significant change
Ανεπεξέργαστο LZIB 211500Z 33010KT CAVOK 15/05 Q1026 NOSIG

VFR

16°C / 5°C

[Περισσότερο]
Άνεμος 320º variable 280º to 340º 10kt
Ορατότητα >10km
Καιρός -
Νέφη Clouds and Visibility OK
Πίεση 1026
Αλλαγή No Significant change
Ανεπεξέργαστο LZIB 211430Z 32010KT 280V340 CAVOK 16/05 Q1026 NOSIG

VFR

16°C / 4°C

[Περισσότερο]
Άνεμος 320º 11kt
Ορατότητα >10km
Καιρός -
Νέφη Clouds and Visibility OK
Πίεση 1026
Αλλαγή No Significant change
Ανεπεξέργαστο LZIB 211400Z 32011KT CAVOK 16/04 Q1026 NOSIG

VFR

16°C / 5°C

[Περισσότερο]
Άνεμος 320º 10kt
Ορατότητα >10km
Καιρός -
Νέφη Clouds and Visibility OK
Πίεση 1026
Αλλαγή No Significant change
Ανεπεξέργαστο LZIB 211330Z 32010KT CAVOK 16/05 Q1026 NOSIG

VFR

16°C / 4°C

[Περισσότερο]
Άνεμος 310º 12kt
Ορατότητα >10km
Καιρός -
Νέφη Clouds and Visibility OK
Πίεση 1026
Αλλαγή No Significant change
Ανεπεξέργαστο LZIB 211300Z 31012KT CAVOK 16/04 Q1026 NOSIG

VFR

17°C / 3°C

[Περισσότερο]
Άνεμος 360º variable 330º to 040º 7kt
Ορατότητα >10km
Καιρός -
Νέφη Clouds and Visibility OK
Πίεση 1026
Αλλαγή No Significant change
Ανεπεξέργαστο LZIB 211230Z 36007KT 330V040 CAVOK 17/03 Q1026 NOSIG

VFR

16°C / 3°C

[Περισσότερο]
Άνεμος 340º 9kt
Ορατότητα >10km
Καιρός -
Νέφη Clouds and Visibility OK
Πίεση 1026
Αλλαγή No Significant change
Ανεπεξέργαστο LZIB 211200Z 34009KT CAVOK 16/03 Q1026 NOSIG

VFR

16°C / 3°C

[Περισσότερο]
Άνεμος 350º variable 330º to 030º 11kt
Ορατότητα >10km
Καιρός -
Νέφη Clouds and Visibility OK
Πίεση 1026
Αλλαγή No Significant change
Ανεπεξέργαστο LZIB 211130Z 35011KT 330V030 CAVOK 16/03 Q1026 NOSIG

VFR

16°C / 4°C

[Περισσότερο]
Άνεμος 360º 11kt
Ορατότητα >10km
Καιρός -
Νέφη Clouds and Visibility OK
Πίεση 1026
Αλλαγή No Significant change
Ανεπεξέργαστο LZIB 211100Z 36011KT CAVOK 16/04 Q1026 NOSIG

VFR

15°C / 3°C

[Περισσότερο]
Άνεμος 340º variable 320º to 030º 11kt
Ορατότητα >10km
Καιρός -
Νέφη Clouds and Visibility OK
Πίεση 1026
Αλλαγή No Significant change
Ανεπεξέργαστο LZIB 211030Z 34011KT 320V030 CAVOK 15/03 Q1026 NOSIG

VFR

16°C / 3°C

[Περισσότερο]
Άνεμος 360º variable 330º to 040º 10kt
Ορατότητα >10km
Καιρός -
Νέφη Clouds and Visibility OK
Πίεση 1026
Αλλαγή No Significant change
Ανεπεξέργαστο LZIB 211000Z 36010KT 330V040 CAVOK 16/03 Q1026 NOSIG

VFR

16°C / 4°C

[Περισσότερο]
Άνεμος 30º variable 340º to 070º 7kt
Ορατότητα >10km
Καιρός -
Νέφη Few Clouds 4800ft
Πίεση 1026
Αλλαγή No Significant change
Ανεπεξέργαστο LZIB 210930Z 03007KT 340V070 9999 FEW048 16/04 Q1026 NOSIG

VFR

15°C / 3°C

[Περισσότερο]
Άνεμος 20º variable 340º to 050º 8kt
Ορατότητα >10km
Καιρός -
Νέφη Few Clouds 4600ft
Πίεση 1026
Αλλαγή No Significant change
Ανεπεξέργαστο LZIB 210900Z 02008KT 340V050 9999 FEW046 15/03 Q1026 NOSIG

VFR

15°C / 4°C

[Περισσότερο]
Άνεμος 20º variable 350º to 050º 9kt
Ορατότητα >10km
Καιρός -
Νέφη Few Clouds 4600ft
Πίεση 1026
Αλλαγή No Significant change
Ανεπεξέργαστο LZIB 210830Z 02009KT 350V050 9999 FEW046 15/04 Q1026 NOSIG

VFR

14°C / 3°C

[Περισσότερο]
Άνεμος 10º variable 340º to 040º 11kt
Ορατότητα >10km
Καιρός -
Νέφη Few Clouds 4200ft
Πίεση 1026
Αλλαγή No Significant change
Ανεπεξέργαστο LZIB 210800Z 01011KT 340V040 9999 FEW042 14/03 Q1026 NOSIG

VFR

14°C / 3°C

[Περισσότερο]
Άνεμος 350º 11kt
Ορατότητα >10km
Καιρός -
Νέφη Clouds and Visibility OK
Πίεση 1026
Αλλαγή No Significant change
Ανεπεξέργαστο LZIB 210730Z 35011KT CAVOK 14/03 Q1026 NOSIG

VFR

14°C / 3°C

[Περισσότερο]
Άνεμος 10º 10kt
Ορατότητα >10km
Καιρός -
Νέφη Clouds and Visibility OK
Πίεση 1025
Αλλαγή No Significant change
Ανεπεξέργαστο LZIB 210700Z 01010KT CAVOK 14/03 Q1025 NOSIG

VFR

13°C / 4°C

[Περισσότερο]
Άνεμος 360º 9kt
Ορατότητα >10km
Καιρός -
Νέφη Clouds and Visibility OK
Πίεση 1025
Αλλαγή No Significant change
Ανεπεξέργαστο LZIB 210630Z 36009KT CAVOK 13/04 Q1025 NOSIG

VFR

13°C / 4°C

[Περισσότερο]
Άνεμος 360º variable 290º to 020º 7kt
Ορατότητα >10km
Καιρός -
Νέφη Clouds and Visibility OK
Πίεση 1025
Αλλαγή No Significant change
Ανεπεξέργαστο LZIB 210600Z 36007KT 290V020 CAVOK 13/04 Q1025 NOSIG

TAF για Ivanka pri Dunaji (LZIB)

From till


From till Wind 310º 8kt. Visibility 10km or more. Nil Significant Cloud.
Becoming from till Wind 310º 8kt. Visibility 10km or more. Scattered Clouds 2500ft. Broken Clouds 4000ft.
Temporarly from till Light Rain .
Becoming from till Wind 310º 8kt. Visibility 10km or more. Scattered Clouds 4000ft.

Ανεπεξέργαστο: TAF LZIB 211700Z 2118/2218 31008KT CAVOK BECMG 2201/2203 9999 SCT025 BKN040 TEMPO 2203/2209 -RA BECMG 2213/2215 9999 SCT040

Τρέχουσες εικόνες δορυφόρου και βροχής για Ivanka pri Dunaji, Σλοβακία

Η ένδειξη τοποθεσίας τοποθετείται στο Ivanka pri Dunaji. [Περισσότερο]

Οι δορυφορικές εικόνες σε πραγματικό χρόνο συνδυάζουν ορατό φως κατά τη διάρκεια της ημέρας με υπέρυθρη ακτινοβολία κατά τη διάρκεια της νύχτας. Κατά τη διάρκεια της νύχτας, η εικόνα δεν είναι σκοτεινή μιας και η υπέρυθρη ακτινοβολία μπορεί να εντοπίσει τις διαφορές στη θερμοκρασία. Δυστυχώς, είναι δύσκολο να ξεχωρίσουν οι χαμηλές νεφώσεις και η ομίχλη από τις θερμοκρασίες εδάφους και έτσι μπορεί να είναι σχετικά αόρατα κατά τη διάρκεια της νύχτας. Οι εικόνες από τον δορυφόρο Meteosat για την Ευρώπη ενημερώνονται σε πραγματικό χρόνο κάθε 5 λεπτά. Οι εικόνες από τους δορυφόρους GOES-16/GOES-17 (Βόρεια & Λατινική Αμερική) και Himawari (Ασία) ενημερώνονται κάθε 10 λεπτά.

Ο υετός υπολογίζεται από ραντάρ και δορυφόρους. Η εκτιμήση του υετού από δορυφόρους τη νύχτα είναι λιγότερο ακριβής από ό,τι την ημέρα. Με πορτοκαλί σταυροούς οι θέσεις όπου αστραπές εντοπίζονται (για Ευρώπη).

Πνευματική ιδιοκτησία 2021 EUMETSAT / meteoblue. Δεδομένα αστραπών παρεχόμενα από nowcast.

Ραντάρ και πρόγνωση υετού μικρής δειάρκειας για Ivanka pri Dunaji

Ψιλοβρέχει
Φως
Μέτρια
Βαριά
Πολύ βαρύ
Χαλάζι

Ο δείκτης θέσης τοποθετείται στο Ivanka pri Dunaji. Αυτή η κινούμενη εικόνα δείχνει την ραντάρ βροχόπτωσης για την τελευταία ώρα, καθώς και 1πρόγνωση h. Το ψιλόβροχο ή το ελαφρύ χιόνι μπορεί να είναι αόρατο για το ραντάρ. Η ένταση της βροχόπτωσης είναι χρωματικά κωδικοποιημένη και κυμαίνεται από γαλάζιο έως πορτοκαλί.

Τρέχουσα κατάσταση καιρού και προειδοποιήσεις

EUMETNET – MeteoAlarm

pictomap

Πηγή: SHMU

Μπορεί να υπάρχουν χρονικές καθυστερήσεις μεταξύ αυτής της ιστοσελίδας και του www.meteoalarm.eu Για πιο ενημερωμένες πληροφορίες σχετικά με τα επίπεδα συναγερμού, όπως δημοσιεύονται από τις συμμετέχουσες Εθνικές Μετεωρολογικές Υπηρεσίες, παρακαλούμε χρησιμοποιήστε το www.meteoalarm.eu.